Terminal Aerodrome Forecast
Issued by NWS Spokane, WA

Home | Current Version | Previous Version | Text Only | Print | Product List | Glossary On
Versions: 1 2 3 4 5 6 7 8 9 10 11 12 13 14 15 16 17 18 19 20 21 22 23 24 25 26 27 28 29 30 31 32 33 34 35 36 37 38 39 40 41 42 43 44 45 46 47 48 49 50
000
FTUS46 KOTX 231946 AAA
TAFGEG
TAF AMD
KGEG 231946Z 2320/2418 23025G36KT P6SM VCSH BKN018 OVC200
     FM232200 22028G38KT P6SM -SHRA VCTS SCT060CB BKN080
      TEMPO 2323/2401 27028G44KT -TSRA
     FM240100 24019G27KT P6SM FEW060 SCT100
     FM240700 21014G20KT P6SM BKN250
     FM241300 21013KT P6SM SCT010=

USA.gov is the U.S. government's official web portal to all federal, state and local government web resources and services.